Aérodrome :
LOGIN :

S'inscrire | Disclaimer

   EN    FR    IT 

 










Légende :    VFR   VFR Marginal   IFR   IFR Intensif   IFR Très Intensif
Visi : 
Plafond : 
>= 8 km
>= 3000ft
5 à 8 km
1000 à 3000 ft
1500m à 5 km
500 à 1000 ft
800 à 1500m
200 à 500 ft
< 800m
< 200 ft
Symboles :   Orages  Brouillard  Fortes neiges  Fortes précipitations  Vent > 20 kt
SIGMETs :   Divers  Orages  Givrage  Turbulence  Onde Orograph.  Cendres Volcan.






- Altitude de l'aérodrome : 1161 ft
- Code IATA : RJL


LELO - Logroño-Agoncillo

DERNIER METAR :
  • 150200Z AUTO 25006KT 9999 BKN029 BKN038 19/17 Q1014

METARs EXPIRÉS :
  • 150130Z AUTO 26005KT 9999 FEW029 19/17 Q1014
  • 150100Z AUTO 28004KT CAVOK 19/18 Q1014
  • 150030Z AUTO VRB02KT CAVOK 20/18 Q1014
  • 150000Z AUTO 13003KT 060V160 CAVOK 20/18 Q1015
  • 142330Z AUTO 15003KT 100V190 CAVOK 21/18 Q1015

TAF TAF LELO
Valide du 14 à 21h jusqu'au 15 à 21h UTC


142000Z 1421/1521 VRB05KT 9999 FEW045 TX33/1515Z TN16/1505Z
PROB30
TEMPO 1505/1511 10010KT
BECMG 1515/1517 29010KT



MET'MAP, la Météo Aéronautique d'un coup d'oeil ! - Copyright ORBIFLY Décembre 2007 - Disclaimer

ORBIFLY MET'MAP TEAM :

Programmation & Développement : Alexandra Zaïnal
Sur une idée originale de : Baudouin d'Aumeries
Assistance à la programmation : Marc-Olivier Méhu
Soutien technique & logistique : Manuel Goepfert

Contact : metmap@orbifly.com




SOURCES & CREDITS :

   NOAA